sensor_id;sensor_type;location;lat;lon;timestamp;temperature;humidity
4324;DHT22;2175;51.018;6.994;2022-09-12T00:01:57;14.30;99.90
4324;DHT22;2175;51.018;6.994;2022-09-12T00:04:23;14.30;99.90
4324;DHT22;2175;51.018;6.994;2022-09-12T00:06:48;14.30;99.90
4324;DHT22;2175;51.018;6.994;2022-09-12T00:09:14;14.20;99.90
4324;DHT22;2175;51.018;6.994;2022-09-12T00:11:43;14.10;99.90
4324;DHT22;2175;51.018;6.994;2022-09-12T00:14:12;14.10;99.90
4324;DHT22;2175;51.018;6.994;2022-09-12T00:16:38;14.20;99.90
4324;DHT22;2175;51.018;6.994;2022-09-12T00:19:04;14.10;99.90
4324;DHT22;2175;51.018;6.994;2022-09-12T00:21:32;14.20;99.90
4324;DHT22;2175;51.018;6.994;2022-09-12T00:23:58;14.20;99.90
4324;DHT22;2175;51.018;6.994;2022-09-12T00:26:24;14.20;99.90
4324;DHT22;2175;51.018;6.994;2022-09-12T00:28:50;14.20;99.90
4324;DHT22;2175;51.018;6.994;2022-09-12T00:31:19;14.30;99.90
4324;DHT22;2175;51.018;6.994;2022-09-12T00:33:45;14.30;99.90
4324;DHT22;2175;51.018;6.994;2022-09-12T00:36:14;14.10;99.90
4324;DHT22;2175;51.018;6.994;2022-09-12T00:38:41;14.20;99.90
4324;DHT22;2175;51.018;6.994;2022-09-12T00:41:13;14.10;99.90
4324;DHT22;2175;51.018;6.994;2022-09-12T00:43:42;14.00;99.90
4324;DHT22;2175;51.018;6.994;2022-09-12T00:46:18;14.00;99.90
4324;DHT22;2175;51.018;6.994;2022-09-12T00:48:51;13.90;99.90
4324;DHT22;2175;51.018;6.994;2022-09-12T00:51:19;13.90;99.90
4324;DHT22;2175;51.018;6.994;2022-09-12T00:53:47;13.80;99.90
4324;DHT22;2175;51.018;6.994;2022-09-12T00:56:16;13.70;99.90
4324;DHT22;2175;51.018;6.994;2022-09-12T00:59:13;13.70;99.90
4324;DHT22;2175;51.018;6.994;2022-09-12T01:01:40;13.80;99.90
4324;DHT22;2175;51.018;6.994;2022-09-12T01:04:08;13.80;99.90
4324;DHT22;2175;51.018;6.994;2022-09-12T01:06:37;13.90;99.90
4324;DHT22;2175;51.018;6.994;2022-09-12T01:09:04;13.70;99.90
4324;DHT22;2175;51.018;6.994;2022-09-12T01:11:35;13.70;99.90
4324;DHT22;2175;51.018;6.994;2022-09-12T01:14:01;13.70;99.90
4324;DHT22;2175;51.018;6.994;2022-09-12T01:16:27;13.70;99.90
4324;DHT22;2175;51.018;6.994;2022-09-12T01:25:15;13.70;99.90
4324;DHT22;2175;51.018;6.994;2022-09-12T01:27:26;13.70;99.90
4324;DHT22;2175;51.018;6.994;2022-09-12T01:32:25;13.60;99.90
4324;DHT22;2175;51.018;6.994;2022-09-12T01:35:03;13.70;99.90
4324;DHT22;2175;51.018;6.994;2022-09-12T01:42:58;13.50;99.90
4324;DHT22;2175;51.018;6.994;2022-09-12T01:45:40;13.60;99.90
4324;DHT22;2175;51.018;6.994;2022-09-12T01:48:19;13.50;99.90
4324;DHT22;2175;51.018;6.994;2022-09-12T01:51:09;13.50;99.90
4324;DHT22;2175;51.018;6.994;2022-09-12T01:53:40;13.50;99.90
4324;DHT22;2175;51.018;6.994;2022-09-12T01:56:24;13.50;99.90
4324;DHT22;2175;51.018;6.994;2022-09-12T01:58:59;13.50;99.90
4324;DHT22;2175;51.018;6.994;2022-09-12T02:01:29;13.40;99.90
4324;DHT22;2175;51.018;6.994;2022-09-12T02:06:48;13.50;99.90
4324;DHT22;2175;51.018;6.994;2022-09-12T02:11:44;13.50;99.90
4324;DHT22;2175;51.018;6.994;2022-09-12T02:14:16;13.40;99.90
4324;DHT22;2175;51.018;6.994;2022-09-12T02:16:59;13.40;99.90
4324;DHT22;2175;51.018;6.994;2022-09-12T02:19:36;13.40;99.90
4324;DHT22;2175;51.018;6.994;2022-09-12T02:22:04;13.50;99.90
4324;DHT22;2175;51.018;6.994;2022-09-12T02:24:36;13.50;99.90
4324;DHT22;2175;51.018;6.994;2022-09-12T02:29:35;13.40;99.90
4324;DHT22;2175;51.018;6.994;2022-09-12T02:32:05;13.30;99.90
4324;DHT22;2175;51.018;6.994;2022-09-12T02:40:20;13.30;99.90
4324;DHT22;2175;51.018;6.994;2022-09-12T02:42:47;13.30;99.90
4324;DHT22;2175;51.018;6.994;2022-09-12T02:45:14;13.20;99.90
4324;DHT22;2175;51.018;6.994;2022-09-12T02:47:59;13.20;99.90
4324;DHT22;2175;51.018;6.994;2022-09-12T02:50:27;13.20;99.90
4324;DHT22;2175;51.018;6.994;2022-09-12T02:52:53;13.20;99.90
4324;DHT22;2175;51.018;6.994;2022-09-12T02:55:24;13.10;99.90
4324;DHT22;2175;51.018;6.994;2022-09-12T02:57:50;13.20;99.90
4324;DHT22;2175;51.018;6.994;2022-09-12T03:00:16;13.20;99.90
4324;DHT22;2175;51.018;6.994;2022-09-12T03:06:12;13.00;99.90
4324;DHT22;2175;51.018;6.994;2022-09-12T03:08:47;13.10;99.90
4324;DHT22;2175;51.018;6.994;2022-09-12T03:16:55;13.20;99.90
4324;DHT22;2175;51.018;6.994;2022-09-12T03:19:32;13.10;99.90
4324;DHT22;2175;51.018;6.994;2022-09-12T03:24:50;13.00;99.90
4324;DHT22;2175;51.018;6.994;2022-09-12T03:27:28;13.00;99.90
4324;DHT22;2175;51.018;6.994;2022-09-12T03:29:55;13.00;99.90
4324;DHT22;2175;51.018;6.994;2022-09-12T03:35:11;13.00;99.90
4324;DHT22;2175;51.018;6.994;2022-09-12T03:37:37;13.10;99.90
4324;DHT22;2175;51.018;6.994;2022-09-12T03:40:04;13.00;99.90
4324;DHT22;2175;51.018;6.994;2022-09-12T03:42:30;12.90;99.90
4324;DHT22;2175;51.018;6.994;2022-09-12T03:44:55;12.90;99.90
4324;DHT22;2175;51.018;6.994;2022-09-12T03:47:21;12.80;99.90
4324;DHT22;2175;51.018;6.994;2022-09-12T03:49:47;12.80;99.90
4324;DHT22;2175;51.018;6.994;2022-09-12T03:52:12;12.80;99.90
4324;DHT22;2175;51.018;6.994;2022-09-12T03:54:38;12.80;99.90
4324;DHT22;2175;51.018;6.994;2022-09-12T03:57:04;12.70;99.90
4324;DHT22;2175;51.018;6.994;2022-09-12T03:59:30;12.70;99.90
4324;DHT22;2175;51.018;6.994;2022-09-12T04:01:56;12.60;99.90
4324;DHT22;2175;51.018;6.994;2022-09-12T04:04:21;12.70;99.90
4324;DHT22;2175;51.018;6.994;2022-09-12T04:06:47;12.70;99.90
4324;DHT22;2175;51.018;6.994;2022-09-12T04:09:12;12.70;99.90
4324;DHT22;2175;51.018;6.994;2022-09-12T04:11:38;12.70;99.90
4324;DHT22;2175;51.018;6.994;2022-09-12T04:14:04;12.80;99.90
4324;DHT22;2175;51.018;6.994;2022-09-12T04:16:30;12.80;99.90
4324;DHT22;2175;51.018;6.994;2022-09-12T04:18:56;12.80;99.90
4324;DHT22;2175;51.018;6.994;2022-09-12T04:21:22;12.70;99.90
4324;DHT22;2175;51.018;6.994;2022-09-12T04:23:47;12.70;99.90
4324;DHT22;2175;51.018;6.994;2022-09-12T04:26:14;12.80;99.90
4324;DHT22;2175;51.018;6.994;2022-09-12T04:28:41;12.70;99.90
4324;DHT22;2175;51.018;6.994;2022-09-12T04:31:11;12.70;99.90
4324;DHT22;2175;51.018;6.994;2022-09-12T04:33:38;12.70;99.90
4324;DHT22;2175;51.018;6.994;2022-09-12T04:36:15;12.70;99.90
4324;DHT22;2175;51.018;6.994;2022-09-12T04:38:43;12.70;99.90
4324;DHT22;2175;51.018;6.994;2022-09-12T04:41:14;12.70;99.90
4324;DHT22;2175;51.018;6.994;2022-09-12T04:43:40;12.70;99.90
4324;DHT22;2175;51.018;6.994;2022-09-12T04:46:08;12.80;99.90
4324;DHT22;2175;51.018;6.994;2022-09-12T04:48:35;12.80;99.90
4324;DHT22;2175;51.018;6.994;2022-09-12T04:51:31;12.70;99.90
4324;DHT22;2175;51.018;6.994;2022-09-12T04:54:00;12.70;99.90
4324;DHT22;2175;51.018;6.994;2022-09-12T04:56:27;12.60;99.90
4324;DHT22;2175;51.018;6.994;2022-09-12T04:58:56;12.70;99.90
4324;DHT22;2175;51.018;6.994;2022-09-12T05:01:22;12.70;99.90
4324;DHT22;2175;51.018;6.994;2022-09-12T05:03:48;12.70;99.90
4324;DHT22;2175;51.018;6.994;2022-09-12T05:06:17;12.70;99.90
4324;DHT22;2175;51.018;6.994;2022-09-12T05:08:43;12.60;99.90
4324;DHT22;2175;51.018;6.994;2022-09-12T05:11:11;12.70;99.90
4324;DHT22;2175;51.018;6.994;2022-09-12T05:13:37;12.70;99.90
4324;DHT22;2175;51.018;6.994;2022-09-12T05:16:05;12.70;99.90
4324;DHT22;2175;51.018;6.994;2022-09-12T05:18:31;12.80;99.90
4324;DHT22;2175;51.018;6.994;2022-09-12T05:21:03;12.80;99.90
4324;DHT22;2175;51.018;6.994;2022-09-12T05:23:30;12.70;99.90
4324;DHT22;2175;51.018;6.994;2022-09-12T05:25:58;12.80;99.90
4324;DHT22;2175;51.018;6.994;2022-09-12T05:28:27;12.90;99.90
4324;DHT22;2175;51.018;6.994;2022-09-12T05:31:01;13.00;99.90
4324;DHT22;2175;51.018;6.994;2022-09-12T05:33:29;13.00;99.90
4324;DHT22;2175;51.018;6.994;2022-09-12T05:35:54;13.00;99.90
4324;DHT22;2175;51.018;6.994;2022-09-12T05:38:20;13.00;99.90
4324;DHT22;2175;51.018;6.994;2022-09-12T05:40:45;13.00;99.90
4324;DHT22;2175;51.018;6.994;2022-09-12T05:43:11;13.00;99.90
4324;DHT22;2175;51.018;6.994;2022-09-12T05:45:37;13.10;99.90
4324;DHT22;2175;51.018;6.994;2022-09-12T05:48:03;13.10;99.90
4324;DHT22;2175;51.018;6.994;2022-09-12T05:50:29;13.10;99.90
4324;DHT22;2175;51.018;6.994;2022-09-12T05:52:56;13.20;99.90
4324;DHT22;2175;51.018;6.994;2022-09-12T05:55:22;13.30;99.90
4324;DHT22;2175;51.018;6.994;2022-09-12T05:57:48;13.30;99.90
4324;DHT22;2175;51.018;6.994;2022-09-12T06:00:14;13.50;99.90
4324;DHT22;2175;51.018;6.994;2022-09-12T06:02:40;13.60;99.90
4324;DHT22;2175;51.018;6.994;2022-09-12T06:05:06;13.70;99.90
4324;DHT22;2175;51.018;6.994;2022-09-12T06:07:32;13.70;99.90
4324;DHT22;2175;51.018;6.994;2022-09-12T06:09:58;13.80;99.90
4324;DHT22;2175;51.018;6.994;2022-09-12T06:12:24;13.80;99.90
4324;DHT22;2175;51.018;6.994;2022-09-12T06:14:51;13.90;99.90
4324;DHT22;2175;51.018;6.994;2022-09-12T06:17:17;14.10;99.90
4324;DHT22;2175;51.018;6.994;2022-09-12T06:19:43;14.10;99.90
4324;DHT22;2175;51.018;6.994;2022-09-12T06:22:10;14.10;99.90
4324;DHT22;2175;51.018;6.994;2022-09-12T06:24:35;14.20;99.90
4324;DHT22;2175;51.018;6.994;2022-09-12T06:27:01;14.30;99.90
4324;DHT22;2175;51.018;6.994;2022-09-12T06:29:27;14.40;99.90
4324;DHT22;2175;51.018;6.994;2022-09-12T06:31:53;14.50;99.90
4324;DHT22;2175;51.018;6.994;2022-09-12T06:34:18;14.50;99.90
4324;DHT22;2175;51.018;6.994;2022-09-12T06:36:46;14.60;99.90
4324;DHT22;2175;51.018;6.994;2022-09-12T06:39:18;14.70;99.90
4324;DHT22;2175;51.018;6.994;2022-09-12T06:41:44;14.80;99.90
4324;DHT22;2175;51.018;6.994;2022-09-12T06:44:12;14.80;99.90
4324;DHT22;2175;51.018;6.994;2022-09-12T06:46:38;14.80;99.90
4324;DHT22;2175;51.018;6.994;2022-09-12T06:49:04;14.90;99.90
4324;DHT22;2175;51.018;6.994;2022-09-12T06:51:29;15.00;99.90
4324;DHT22;2175;51.018;6.994;2022-09-12T06:53:56;15.00;99.90
4324;DHT22;2175;51.018;6.994;2022-09-12T06:56:23;15.10;99.90
4324;DHT22;2175;51.018;6.994;2022-09-12T06:58:50;15.30;99.90
4324;DHT22;2175;51.018;6.994;2022-09-12T07:03:46;15.50;99.90
4324;DHT22;2175;51.018;6.994;2022-09-12T07:06:15;15.50;99.90
4324;DHT22;2175;51.018;6.994;2022-09-12T07:08:41;15.60;99.90
4324;DHT22;2175;51.018;6.994;2022-09-12T07:11:10;15.60;99.90
4324;DHT22;2175;51.018;6.994;2022-09-12T07:13:37;15.70;99.90
4324;DHT22;2175;51.018;6.994;2022-09-12T07:16:04;15.70;99.90
4324;DHT22;2175;51.018;6.994;2022-09-12T07:18:31;15.90;99.90
4324;DHT22;2175;51.018;6.994;2022-09-12T07:21:01;15.80;99.90
4324;DHT22;2175;51.018;6.994;2022-09-12T07:23:28;16.00;99.90
4324;DHT22;2175;51.018;6.994;2022-09-12T07:25:55;16.10;99.90
4324;DHT22;2175;51.018;6.994;2022-09-12T07:28:22;16.20;99.90
4324;DHT22;2175;51.018;6.994;2022-09-12T07:30:49;16.20;99.90
4324;DHT22;2175;51.018;6.994;2022-09-12T07:33:14;16.30;99.90
4324;DHT22;2175;51.018;6.994;2022-09-12T07:35:42;16.30;99.90
4324;DHT22;2175;51.018;6.994;2022-09-12T07:38:09;16.50;99.90
4324;DHT22;2175;51.018;6.994;2022-09-12T07:40:34;16.40;99.90
4324;DHT22;2175;51.018;6.994;2022-09-12T07:43:00;16.50;99.90
4324;DHT22;2175;51.018;6.994;2022-09-12T07:45:25;16.60;99.90
4324;DHT22;2175;51.018;6.994;2022-09-12T07:47:53;16.70;99.90
4324;DHT22;2175;51.018;6.994;2022-09-12T07:50:18;16.90;99.90
4324;DHT22;2175;51.018;6.994;2022-09-12T07:52:44;17.10;99.90
4324;DHT22;2175;51.018;6.994;2022-09-12T07:55:10;17.30;99.90
4324;DHT22;2175;51.018;6.994;2022-09-12T07:57:35;17.50;99.90
4324;DHT22;2175;51.018;6.994;2022-09-12T08:00:01;17.80;99.90
4324;DHT22;2175;51.018;6.994;2022-09-12T08:02:28;18.10;99.90
4324;DHT22;2175;51.018;6.994;2022-09-12T08:04:53;18.30;99.90
4324;DHT22;2175;51.018;6.994;2022-09-12T08:07:19;18.40;99.90
4324;DHT22;2175;51.018;6.994;2022-09-12T08:09:45;18.50;99.90
4324;DHT22;2175;51.018;6.994;2022-09-12T08:12:10;18.20;99.90
4324;DHT22;2175;51.018;6.994;2022-09-12T08:14:36;18.30;99.90
4324;DHT22;2175;51.018;6.994;2022-09-12T08:17:02;18.30;99.90
4324;DHT22;2175;51.018;6.994;2022-09-12T08:19:27;18.40;99.90
4324;DHT22;2175;51.018;6.994;2022-09-12T08:21:53;18.40;99.90
4324;DHT22;2175;51.018;6.994;2022-09-12T08:24:18;18.50;99.90
4324;DHT22;2175;51.018;6.994;2022-09-12T08:26:44;18.60;99.90
4324;DHT22;2175;51.018;6.994;2022-09-12T08:29:10;18.50;99.90
4324;DHT22;2175;51.018;6.994;2022-09-12T08:31:36;18.80;99.90
4324;DHT22;2175;51.018;6.994;2022-09-12T08:34:03;19.00;99.90
4324;DHT22;2175;51.018;6.994;2022-09-12T08:36:30;19.10;99.90
4324;DHT22;2175;51.018;6.994;2022-09-12T08:38:57;19.60;99.90
4324;DHT22;2175;51.018;6.994;2022-09-12T08:46:41;21.00;99.90
4324;DHT22;2175;51.018;6.994;2022-09-12T08:49:12;21.40;93.60
4324;DHT22;2175;51.018;6.994;2022-09-12T08:51:40;21.70;77.20
4324;DHT22;2175;51.018;6.994;2022-09-12T08:54:17;22.10;89.60
4324;DHT22;2175;51.018;6.994;2022-09-12T08:56:44;22.00;4.90
4324;DHT22;2175;51.018;6.994;2022-09-12T08:59:10;22.10;1.00
4324;DHT22;2175;51.018;6.994;2022-09-12T09:01:44;22.30;1.00
4324;DHT22;2175;51.018;6.994;2022-09-12T09:15:45;23.20;1.00
4324;DHT22;2175;51.018;6.994;2022-09-12T09:18:26;23.40;99.90
4324;DHT22;2175;51.018;6.994;2022-09-12T09:21:04;23.20;99.90
4324;DHT22;2175;51.018;6.994;2022-09-12T09:23:43;23.60;99.90
4324;DHT22;2175;51.018;6.994;2022-09-12T09:26:28;23.60;69.40
4324;DHT22;2175;51.018;6.994;2022-09-12T09:29:05;24.00;1.00
4324;DHT22;2175;51.018;6.994;2022-09-12T09:31:37;24.30;1.00
4324;DHT22;2175;51.018;6.994;2022-09-12T09:34:20;24.60;1.00
4324;DHT22;2175;51.018;6.994;2022-09-12T09:44:55;24.30;99.90
4324;DHT22;2175;51.018;6.994;2022-09-12T09:47:22;24.70;1.00
4324;DHT22;2175;51.018;6.994;2022-09-12T09:49:47;24.60;1.00
4324;DHT22;2175;51.018;6.994;2022-09-12T09:52:23;24.70;1.00
4324;DHT22;2175;51.018;6.994;2022-09-12T09:54:53;24.40;99.90
4324;DHT22;2175;51.018;6.994;2022-09-12T10:00:31;24.00;97.40
4324;DHT22;2175;51.018;6.994;2022-09-12T10:03:01;24.00;1.00
4324;DHT22;2175;51.018;6.994;2022-09-12T10:05:28;23.80;99.90
4324;DHT22;2175;51.018;6.994;2022-09-12T10:07:54;23.80;99.90
4324;DHT22;2175;51.018;6.994;2022-09-12T10:10:20;23.90;13.60
4324;DHT22;2175;51.018;6.994;2022-09-12T10:12:49;23.80;1.00
4324;DHT22;2175;51.018;6.994;2022-09-12T10:17:43;23.70;99.90
4324;DHT22;2175;51.018;6.994;2022-09-12T10:20:38;23.60;99.90
4324;DHT22;2175;51.018;6.994;2022-09-12T10:25:47;23.80;71.90
4324;DHT22;2175;51.018;6.994;2022-09-12T10:28:31;23.80;1.00
4324;DHT22;2175;51.018;6.994;2022-09-12T10:30:57;23.60;1.00
4324;DHT22;2175;51.018;6.994;2022-09-12T10:33:27;23.80;1.00
4324;DHT22;2175;51.018;6.994;2022-09-12T10:35:54;24.00;99.90
4324;DHT22;2175;51.018;6.994;2022-09-12T10:38:28;24.00;1.00
4324;DHT22;2175;51.018;6.994;2022-09-12T10:41:03;24.10;99.90
4324;DHT22;2175;51.018;6.994;2022-09-12T10:49:22;24.40;1.00
4324;DHT22;2175;51.018;6.994;2022-09-12T10:51:49;24.20;1.00
4324;DHT22;2175;51.018;6.994;2022-09-12T10:54:18;24.10;28.30
4324;DHT22;2175;51.018;6.994;2022-09-12T11:02:27;24.00;1.00
4324;DHT22;2175;51.018;6.994;2022-09-12T11:07:58;24.20;1.00
4324;DHT22;2175;51.018;6.994;2022-09-12T11:10:51;24.10;1.00
4324;DHT22;2175;51.018;6.994;2022-09-12T11:13:26;24.10;99.90
4324;DHT22;2175;51.018;6.994;2022-09-12T11:24:14;23.90;99.90
4324;DHT22;2175;51.018;6.994;2022-09-12T11:29:46;24.20;99.90
4324;DHT22;2175;51.018;6.994;2022-09-12T11:32:40;24.10;1.00
4324;DHT22;2175;51.018;6.994;2022-09-12T11:42:49;24.00;1.00
4324;DHT22;2175;51.018;6.994;2022-09-12T11:45:21;24.00;99.90
4324;DHT22;2175;51.018;6.994;2022-09-12T11:47:52;24.10;99.90
4324;DHT22;2175;51.018;6.994;2022-09-12T11:50:37;24.00;1.00
4324;DHT22;2175;51.018;6.994;2022-09-12T11:53:17;24.00;1.00
4324;DHT22;2175;51.018;6.994;2022-09-12T11:55:59;24.00;1.00
4324;DHT22;2175;51.018;6.994;2022-09-12T11:58:27;24.10;1.00
4324;DHT22;2175;51.018;6.994;2022-09-12T12:01:07;24.10;99.90
4324;DHT22;2175;51.018;6.994;2022-09-12T12:03:40;24.10;1.00
4324;DHT22;2175;51.018;6.994;2022-09-12T12:06:12;24.10;39.70
4324;DHT22;2175;51.018;6.994;2022-09-12T12:08:42;24.10;1.00
4324;DHT22;2175;51.018;6.994;2022-09-12T12:11:09;24.10;86.00
4324;DHT22;2175;51.018;6.994;2022-09-12T12:14:27;24.20;1.00
4324;DHT22;2175;51.018;6.994;2022-09-12T12:16:28;24.20;99.90
4324;DHT22;2175;51.018;6.994;2022-09-12T12:18:58;24.00;1.00
4324;DHT22;2175;51.018;6.994;2022-09-12T12:34:39;24.00;99.90
4324;DHT22;2175;51.018;6.994;2022-09-12T12:39:57;24.10;99.90
4324;DHT22;2175;51.018;6.994;2022-09-12T12:47:43;24.10;99.90
4324;DHT22;2175;51.018;6.994;2022-09-12T12:53:00;24.10;99.90
4324;DHT22;2175;51.018;6.994;2022-09-12T12:55:38;24.20;99.90
4324;DHT22;2175;51.018;6.994;2022-09-12T12:58:34;24.20;99.90
4324;DHT22;2175;51.018;6.994;2022-09-12T13:01:14;24.20;99.90
4324;DHT22;2175;51.018;6.994;2022-09-12T13:03:46;24.30;99.90
4324;DHT22;2175;51.018;6.994;2022-09-12T13:06:33;24.40;99.90
4324;DHT22;2175;51.018;6.994;2022-09-12T13:09:20;24.30;99.80
4324;DHT22;2175;51.018;6.994;2022-09-12T13:12:04;24.30;99.90
4324;DHT22;2175;51.018;6.994;2022-09-12T13:17:06;24.40;99.90
4324;DHT22;2175;51.018;6.994;2022-09-12T13:19:38;24.40;97.40
4324;DHT22;2175;51.018;6.994;2022-09-12T13:22:07;24.40;99.90
4324;DHT22;2175;51.018;6.994;2022-09-12T13:24:43;24.50;99.90
4324;DHT22;2175;51.018;6.994;2022-09-12T13:27:18;24.50;99.90
4324;DHT22;2175;51.018;6.994;2022-09-12T13:29:45;24.50;99.90
4324;DHT22;2175;51.018;6.994;2022-09-12T13:32:10;24.40;91.70
4324;DHT22;2175;51.018;6.994;2022-09-12T13:42:40;24.40;99.90
4324;DHT22;2175;51.018;6.994;2022-09-12T13:45:10;24.40;99.90
4324;DHT22;2175;51.018;6.994;2022-09-12T13:47:45;24.50;99.90
4324;DHT22;2175;51.018;6.994;2022-09-12T13:50:24;24.50;99.90
4324;DHT22;2175;51.018;6.994;2022-09-12T13:52:56;24.40;99.90
4324;DHT22;2175;51.018;6.994;2022-09-12T13:55:40;24.40;99.90
4324;DHT22;2175;51.018;6.994;2022-09-12T13:58:18;24.50;99.90
4324;DHT22;2175;51.018;6.994;2022-09-12T14:00:44;24.40;93.90
4324;DHT22;2175;51.018;6.994;2022-09-12T14:03:28;24.40;84.70
4324;DHT22;2175;51.018;6.994;2022-09-12T14:06:12;24.40;99.90
4324;DHT22;2175;51.018;6.994;2022-09-12T14:08:43;24.50;99.90
4324;DHT22;2175;51.018;6.994;2022-09-12T14:11:10;24.60;99.90
4324;DHT22;2175;51.018;6.994;2022-09-12T14:13:37;24.70;99.90
4324;DHT22;2175;51.018;6.994;2022-09-12T14:16:05;24.60;99.90
4324;DHT22;2175;51.018;6.994;2022-09-12T14:18:36;24.60;99.90
4324;DHT22;2175;51.018;6.994;2022-09-12T14:21:32;24.70;99.90
4324;DHT22;2175;51.018;6.994;2022-09-12T14:23:59;24.60;99.90
4324;DHT22;2175;51.018;6.994;2022-09-12T14:26:27;24.60;99.90
4324;DHT22;2175;51.018;6.994;2022-09-12T14:28:57;24.60;99.90
4324;DHT22;2175;51.018;6.994;2022-09-12T14:31:31;24.70;99.90
4324;DHT22;2175;51.018;6.994;2022-09-12T14:36:48;24.70;99.90
4324;DHT22;2175;51.018;6.994;2022-09-12T14:39:40;24.60;99.90
4324;DHT22;2175;51.018;6.994;2022-09-12T14:42:19;24.60;99.90
4324;DHT22;2175;51.018;6.994;2022-09-12T14:47:24;24.70;99.90
4324;DHT22;2175;51.018;6.994;2022-09-12T14:49:53;24.70;99.90
4324;DHT22;2175;51.018;6.994;2022-09-12T14:52:23;24.70;99.90
4324;DHT22;2175;51.018;6.994;2022-09-12T14:55:18;24.60;99.90
4324;DHT22;2175;51.018;6.994;2022-09-12T14:57:44;24.70;99.90
4324;DHT22;2175;51.018;6.994;2022-09-12T15:02:36;24.70;99.90
4324;DHT22;2175;51.018;6.994;2022-09-12T15:07:42;24.70;99.90
4324;DHT22;2175;51.018;6.994;2022-09-12T15:10:21;24.60;99.90
4324;DHT22;2175;51.018;6.994;2022-09-12T15:12:48;24.60;99.90
4324;DHT22;2175;51.018;6.994;2022-09-12T15:15:17;24.50;99.90
4324;DHT22;2175;51.018;6.994;2022-09-12T15:17:43;24.50;99.90
4324;DHT22;2175;51.018;6.994;2022-09-12T15:20:08;24.40;99.90
4324;DHT22;2175;51.018;6.994;2022-09-12T15:22:36;24.50;99.90
4324;DHT22;2175;51.018;6.994;2022-09-12T15:25:03;24.50;99.90
4324;DHT22;2175;51.018;6.994;2022-09-12T15:27:28;24.50;99.90
4324;DHT22;2175;51.018;6.994;2022-09-12T15:29:54;24.50;99.90
4324;DHT22;2175;51.018;6.994;2022-09-12T15:32:28;24.50;99.90
4324;DHT22;2175;51.018;6.994;2022-09-12T15:34:54;24.50;99.90
4324;DHT22;2175;51.018;6.994;2022-09-12T15:37:22;24.50;99.90
4324;DHT22;2175;51.018;6.994;2022-09-12T15:39:49;24.40;99.90
4324;DHT22;2175;51.018;6.994;2022-09-12T15:42:16;24.40;99.90
4324;DHT22;2175;51.018;6.994;2022-09-12T15:44:43;24.40;99.90
4324;DHT22;2175;51.018;6.994;2022-09-12T15:47:12;24.40;99.90
4324;DHT22;2175;51.018;6.994;2022-09-12T15:49:38;24.30;99.90
4324;DHT22;2175;51.018;6.994;2022-09-12T15:52:04;24.20;99.90
4324;DHT22;2175;51.018;6.994;2022-09-12T15:54:30;24.10;99.90
4324;DHT22;2175;51.018;6.994;2022-09-12T15:56:56;24.10;99.90
4324;DHT22;2175;51.018;6.994;2022-09-12T15:59:21;24.10;99.90
4324;DHT22;2175;51.018;6.994;2022-09-12T16:01:47;24.00;99.90
4324;DHT22;2175;51.018;6.994;2022-09-12T16:04:27;24.00;99.90
4324;DHT22;2175;51.018;6.994;2022-09-12T16:06:56;23.90;1.00
4324;DHT22;2175;51.018;6.994;2022-09-12T16:09:22;23.90;1.00
4324;DHT22;2175;51.018;6.994;2022-09-12T16:11:48;23.90;93.40
4324;DHT22;2175;51.018;6.994;2022-09-12T16:14:16;23.80;99.90
4324;DHT22;2175;51.018;6.994;2022-09-12T16:16:43;23.70;99.90
4324;DHT22;2175;51.018;6.994;2022-09-12T16:19:09;23.70;99.90
4324;DHT22;2175;51.018;6.994;2022-09-12T16:21:35;23.70;99.90
4324;DHT22;2175;51.018;6.994;2022-09-12T16:24:02;23.60;99.90
4324;DHT22;2175;51.018;6.994;2022-09-12T16:26:28;23.50;1.00
4324;DHT22;2175;51.018;6.994;2022-09-12T16:28:57;23.50;99.90
4324;DHT22;2175;51.018;6.994;2022-09-12T16:31:24;23.40;99.90
4324;DHT22;2175;51.018;6.994;2022-09-12T16:33:50;23.40;1.00
4324;DHT22;2175;51.018;6.994;2022-09-12T16:36:18;23.50;1.00
4324;DHT22;2175;51.018;6.994;2022-09-12T16:38:48;23.40;99.90
4324;DHT22;2175;51.018;6.994;2022-09-12T16:41:15;23.40;1.00
4324;DHT22;2175;51.018;6.994;2022-09-12T16:43:41;23.30;1.00
4324;DHT22;2175;51.018;6.994;2022-09-12T16:46:13;23.30;1.00
4324;DHT22;2175;51.018;6.994;2022-09-12T16:48:58;23.30;1.00
4324;DHT22;2175;51.018;6.994;2022-09-12T16:51:31;23.30;1.00
4324;DHT22;2175;51.018;6.994;2022-09-12T16:53:56;23.20;99.90
4324;DHT22;2175;51.018;6.994;2022-09-12T16:56:22;23.20;99.90
4324;DHT22;2175;51.018;6.994;2022-09-12T16:58:48;23.20;1.00
4324;DHT22;2175;51.018;6.994;2022-09-12T17:01:17;23.10;99.90
4324;DHT22;2175;51.018;6.994;2022-09-12T17:03:43;23.10;1.00
4324;DHT22;2175;51.018;6.994;2022-09-12T17:06:12;23.10;99.90
4324;DHT22;2175;51.018;6.994;2022-09-12T17:08:40;23.00;41.50
4324;DHT22;2175;51.018;6.994;2022-09-12T17:11:16;22.90;99.90
4324;DHT22;2175;51.018;6.994;2022-09-12T17:13:49;22.80;1.00
4324;DHT22;2175;51.018;6.994;2022-09-12T17:16:15;22.70;99.90
4324;DHT22;2175;51.018;6.994;2022-09-12T17:18:41;22.70;43.50
4324;DHT22;2175;51.018;6.994;2022-09-12T17:21:08;22.60;1.00
4324;DHT22;2175;51.018;6.994;2022-09-12T17:23:35;22.50;99.90
4324;DHT22;2175;51.018;6.994;2022-09-12T17:26:01;22.40;1.00
4324;DHT22;2175;51.018;6.994;2022-09-12T17:28:27;22.30;1.00
4324;DHT22;2175;51.018;6.994;2022-09-12T17:31:01;22.20;1.00
4324;DHT22;2175;51.018;6.994;2022-09-12T17:33:28;22.20;1.00
4324;DHT22;2175;51.018;6.994;2022-09-12T17:35:53;22.10;1.00
4324;DHT22;2175;51.018;6.994;2022-09-12T17:38:20;22.10;1.00
4324;DHT22;2175;51.018;6.994;2022-09-12T17:40:45;21.90;1.00
4324;DHT22;2175;51.018;6.994;2022-09-12T17:43:12;21.90;1.00
4324;DHT22;2175;51.018;6.994;2022-09-12T17:45:38;21.80;1.00
4324;DHT22;2175;51.018;6.994;2022-09-12T17:48:05;21.70;1.00
4324;DHT22;2175;51.018;6.994;2022-09-12T17:50:34;21.60;1.00
4324;DHT22;2175;51.018;6.994;2022-09-12T17:53:00;21.50;1.00
4324;DHT22;2175;51.018;6.994;2022-09-12T17:55:25;21.50;1.00
4324;DHT22;2175;51.018;6.994;2022-09-12T17:57:51;21.40;1.00
4324;DHT22;2175;51.018;6.994;2022-09-12T18:00:17;21.30;1.00
4324;DHT22;2175;51.018;6.994;2022-09-12T18:03:03;21.20;1.00
4324;DHT22;2175;51.018;6.994;2022-09-12T18:05:28;21.10;1.00
4324;DHT22;2175;51.018;6.994;2022-09-12T18:07:54;21.10;1.00
4324;DHT22;2175;51.018;6.994;2022-09-12T18:10:19;21.00;1.00
4324;DHT22;2175;51.018;6.994;2022-09-12T18:12:45;20.90;1.00
4324;DHT22;2175;51.018;6.994;2022-09-12T18:15:11;20.90;1.00
4324;DHT22;2175;51.018;6.994;2022-09-12T18:17:37;20.80;1.00
4324;DHT22;2175;51.018;6.994;2022-09-12T18:20:03;20.70;1.00
4324;DHT22;2175;51.018;6.994;2022-09-12T18:22:30;20.60;1.00
4324;DHT22;2175;51.018;6.994;2022-09-12T18:24:56;20.60;1.00
4324;DHT22;2175;51.018;6.994;2022-09-12T18:27:21;20.60;1.00
4324;DHT22;2175;51.018;6.994;2022-09-12T18:29:47;20.50;1.00
4324;DHT22;2175;51.018;6.994;2022-09-12T18:32:14;20.40;1.00
4324;DHT22;2175;51.018;6.994;2022-09-12T18:34:39;20.40;1.00
4324;DHT22;2175;51.018;6.994;2022-09-12T18:37:05;20.30;1.00
4324;DHT22;2175;51.018;6.994;2022-09-12T18:39:31;20.20;1.00
4324;DHT22;2175;51.018;6.994;2022-09-12T18:41:57;20.10;1.00
4324;DHT22;2175;51.018;6.994;2022-09-12T18:44:22;20.10;1.00
4324;DHT22;2175;51.018;6.994;2022-09-12T18:46:48;20.00;1.00
4324;DHT22;2175;51.018;6.994;2022-09-12T18:49:13;20.00;1.00
4324;DHT22;2175;51.018;6.994;2022-09-12T18:51:39;19.90;1.00
4324;DHT22;2175;51.018;6.994;2022-09-12T18:54:11;19.90;1.00
4324;DHT22;2175;51.018;6.994;2022-09-12T18:56:36;19.90;1.00